sensor_id;sensor_type;location;lat;lon;timestamp;temperature;humidity
15930;DHT22;8064;51.142;4.780;2023-07-13T00:00:41;17.80;93.80
15930;DHT22;8064;51.142;4.780;2023-07-13T00:03:07;17.80;93.90
15930;DHT22;8064;51.142;4.780;2023-07-13T00:05:33;17.70;94.30
15930;DHT22;8064;51.142;4.780;2023-07-13T00:07:59;17.70;94.00
15930;DHT22;8064;51.142;4.780;2023-07-13T00:10:25;17.70;94.10
15930;DHT22;8064;51.142;4.780;2023-07-13T00:12:52;17.70;94.20
15930;DHT22;8064;51.142;4.780;2023-07-13T00:15:24;17.70;94.30
15930;DHT22;8064;51.142;4.780;2023-07-13T00:17:51;17.70;94.50
15930;DHT22;8064;51.142;4.780;2023-07-13T00:20:17;17.60;94.40
15930;DHT22;8064;51.142;4.780;2023-07-13T00:22:43;17.60;94.50
15930;DHT22;8064;51.142;4.780;2023-07-13T00:25:11;17.50;94.60
15930;DHT22;8064;51.142;4.780;2023-07-13T00:27:37;17.50;94.80
15930;DHT22;8064;51.142;4.780;2023-07-13T00:30:03;17.50;94.90
15930;DHT22;8064;51.142;4.780;2023-07-13T00:32:31;17.40;95.00
15930;DHT22;8064;51.142;4.780;2023-07-13T00:34:57;17.40;95.10
15930;DHT22;8064;51.142;4.780;2023-07-13T00:37:24;17.40;95.20
15930;DHT22;8064;51.142;4.780;2023-07-13T00:39:49;17.30;95.30
15930;DHT22;8064;51.142;4.780;2023-07-13T00:42:15;17.30;95.40
15930;DHT22;8064;51.142;4.780;2023-07-13T00:44:41;17.30;95.50
15930;DHT22;8064;51.142;4.780;2023-07-13T00:47:07;17.30;95.60
15930;DHT22;8064;51.142;4.780;2023-07-13T00:49:35;17.30;95.70
15930;DHT22;8064;51.142;4.780;2023-07-13T00:52:06;17.30;95.80
15930;DHT22;8064;51.142;4.780;2023-07-13T00:54:37;17.30;96.00
15930;DHT22;8064;51.142;4.780;2023-07-13T00:57:06;17.30;96.00
15930;DHT22;8064;51.142;4.780;2023-07-13T00:59:34;17.20;96.10
15930;DHT22;8064;51.142;4.780;2023-07-13T01:02:01;17.20;96.20
15930;DHT22;8064;51.142;4.780;2023-07-13T01:04:27;17.20;96.30
15930;DHT22;8064;51.142;4.780;2023-07-13T01:06:53;17.20;96.40
15930;DHT22;8064;51.142;4.780;2023-07-13T01:09:19;17.20;96.50
15930;DHT22;8064;51.142;4.780;2023-07-13T01:11:46;17.10;96.60
15930;DHT22;8064;51.142;4.780;2023-07-13T01:14:12;17.10;96.70
15930;DHT22;8064;51.142;4.780;2023-07-13T01:16:41;17.10;97.10
15930;DHT22;8064;51.142;4.780;2023-07-13T01:22:04;17.00;97.00
15930;DHT22;8064;51.142;4.780;2023-07-13T01:24:30;17.00;97.00
15930;DHT22;8064;51.142;4.780;2023-07-13T01:26:56;17.00;97.10
15930;DHT22;8064;51.142;4.780;2023-07-13T01:29:22;17.00;97.20
15930;DHT22;8064;51.142;4.780;2023-07-13T01:31:47;17.00;97.60
15930;DHT22;8064;51.142;4.780;2023-07-13T01:34:13;16.90;97.30
15930;DHT22;8064;51.142;4.780;2023-07-13T01:36:39;16.90;97.40
15930;DHT22;8064;51.142;4.780;2023-07-13T01:39:05;16.90;97.40
15930;DHT22;8064;51.142;4.780;2023-07-13T01:41:31;16.90;97.50
15930;DHT22;8064;51.142;4.780;2023-07-13T01:43:56;16.80;97.60
15930;DHT22;8064;51.142;4.780;2023-07-13T01:46:22;16.80;97.70
15930;DHT22;8064;51.142;4.780;2023-07-13T01:48:48;16.80;97.80
15930;DHT22;8064;51.142;4.780;2023-07-13T01:51:15;16.80;97.90
15930;DHT22;8064;51.142;4.780;2023-07-13T01:53:41;16.70;97.90
15930;DHT22;8064;51.142;4.780;2023-07-13T01:56:07;16.70;98.00
15930;DHT22;8064;51.142;4.780;2023-07-13T01:58:33;16.70;98.10
15930;DHT22;8064;51.142;4.780;2023-07-13T02:00:59;16.70;98.20
15930;DHT22;8064;51.142;4.780;2023-07-13T02:03:24;16.70;98.30
15930;DHT22;8064;51.142;4.780;2023-07-13T02:05:50;16.70;98.40
15930;DHT22;8064;51.142;4.780;2023-07-13T02:08:16;16.70;98.50
15930;DHT22;8064;51.142;4.780;2023-07-13T02:10:41;16.70;98.50
15930;DHT22;8064;51.142;4.780;2023-07-13T02:13:08;16.60;98.60
15930;DHT22;8064;51.142;4.780;2023-07-13T02:15:34;16.60;98.70
15930;DHT22;8064;51.142;4.780;2023-07-13T02:17:59;16.60;98.70
15930;DHT22;8064;51.142;4.780;2023-07-13T02:20:25;16.60;98.80
15930;DHT22;8064;51.142;4.780;2023-07-13T02:22:52;16.60;98.90
15930;DHT22;8064;51.142;4.780;2023-07-13T02:25:17;16.60;99.00
15930;DHT22;8064;51.142;4.780;2023-07-13T02:27:43;16.70;99.10
15930;DHT22;8064;51.142;4.780;2023-07-13T02:30:10;16.70;99.20
15930;DHT22;8064;51.142;4.780;2023-07-13T02:32:36;16.70;99.20
15930;DHT22;8064;51.142;4.780;2023-07-13T02:35:02;16.70;99.30
15930;DHT22;8064;51.142;4.780;2023-07-13T02:37:29;16.70;99.30
15930;DHT22;8064;51.142;4.780;2023-07-13T02:39:55;16.80;99.40
15930;DHT22;8064;51.142;4.780;2023-07-13T02:42:21;16.80;99.50
15930;DHT22;8064;51.142;4.780;2023-07-13T02:44:47;16.80;99.50
15930;DHT22;8064;51.142;4.780;2023-07-13T02:47:13;16.80;99.50
15930;DHT22;8064;51.142;4.780;2023-07-13T02:49:39;16.80;99.50
15930;DHT22;8064;51.142;4.780;2023-07-13T02:52:05;16.80;99.60
15930;DHT22;8064;51.142;4.780;2023-07-13T02:54:31;16.90;99.70
15930;DHT22;8064;51.142;4.780;2023-07-13T02:56:57;16.90;99.70
15930;DHT22;8064;51.142;4.780;2023-07-13T02:59:23;16.90;99.80
15930;DHT22;8064;51.142;4.780;2023-07-13T03:01:49;16.90;99.90
15930;DHT22;8064;51.142;4.780;2023-07-13T03:04:15;16.90;99.90
15930;DHT22;8064;51.142;4.780;2023-07-13T03:06:45;16.90;99.90
15930;DHT22;8064;51.142;4.780;2023-07-13T03:09:11;16.90;99.90
15930;DHT22;8064;51.142;4.780;2023-07-13T03:11:38;16.90;99.90
15930;DHT22;8064;51.142;4.780;2023-07-13T03:14:04;16.90;99.90
15930;DHT22;8064;51.142;4.780;2023-07-13T03:16:30;16.90;99.90
15930;DHT22;8064;51.142;4.780;2023-07-13T03:18:56;16.90;99.90
15930;DHT22;8064;51.142;4.780;2023-07-13T03:21:22;16.90;99.90
15930;DHT22;8064;51.142;4.780;2023-07-13T03:23:47;16.90;99.90
15930;DHT22;8064;51.142;4.780;2023-07-13T03:26:17;17.00;99.90
15930;DHT22;8064;51.142;4.780;2023-07-13T03:28:44;17.00;99.90
15930;DHT22;8064;51.142;4.780;2023-07-13T03:31:13;17.00;99.90
15930;DHT22;8064;51.142;4.780;2023-07-13T03:33:39;17.00;99.90
15930;DHT22;8064;51.142;4.780;2023-07-13T03:36:06;17.00;99.90
15930;DHT22;8064;51.142;4.780;2023-07-13T03:38:32;17.00;99.90
15930;DHT22;8064;51.142;4.780;2023-07-13T03:40:58;17.00;99.90
15930;DHT22;8064;51.142;4.780;2023-07-13T03:43:25;17.00;99.90
15930;DHT22;8064;51.142;4.780;2023-07-13T03:45:50;17.00;99.90
15930;DHT22;8064;51.142;4.780;2023-07-13T03:48:16;17.00;99.90
15930;DHT22;8064;51.142;4.780;2023-07-13T03:50:42;17.00;99.90
15930;DHT22;8064;51.142;4.780;2023-07-13T03:53:08;17.00;99.90
15930;DHT22;8064;51.142;4.780;2023-07-13T03:55:34;17.00;99.90
15930;DHT22;8064;51.142;4.780;2023-07-13T04:01:08;17.10;99.90
15930;DHT22;8064;51.142;4.780;2023-07-13T04:03:34;17.10;99.90
15930;DHT22;8064;51.142;4.780;2023-07-13T04:06:02;17.10;99.90
15930;DHT22;8064;51.142;4.780;2023-07-13T04:08:29;17.10;99.90
15930;DHT22;8064;51.142;4.780;2023-07-13T04:10:56;17.10;99.90
15930;DHT22;8064;51.142;4.780;2023-07-13T04:13:22;17.20;99.90
15930;DHT22;8064;51.142;4.780;2023-07-13T04:15:48;17.20;99.90
15930;DHT22;8064;51.142;4.780;2023-07-13T04:18:14;17.20;99.90
15930;DHT22;8064;51.142;4.780;2023-07-13T04:20:40;17.20;99.90
15930;DHT22;8064;51.142;4.780;2023-07-13T04:23:06;17.20;99.90
15930;DHT22;8064;51.142;4.780;2023-07-13T04:25:32;17.20;99.90
15930;DHT22;8064;51.142;4.780;2023-07-13T04:27:57;17.20;99.90
15930;DHT22;8064;51.142;4.780;2023-07-13T04:30:23;17.20;99.90
15930;DHT22;8064;51.142;4.780;2023-07-13T04:32:51;17.20;99.90
15930;DHT22;8064;51.142;4.780;2023-07-13T04:35:18;17.20;99.90
15930;DHT22;8064;51.142;4.780;2023-07-13T04:37:47;17.20;99.90
15930;DHT22;8064;51.142;4.780;2023-07-13T04:40:14;17.20;99.90
15930;DHT22;8064;51.142;4.780;2023-07-13T04:42:40;17.20;99.90
15930;DHT22;8064;51.142;4.780;2023-07-13T04:45:07;17.20;99.90
15930;DHT22;8064;51.142;4.780;2023-07-13T04:47:33;17.20;99.90
15930;DHT22;8064;51.142;4.780;2023-07-13T04:49:59;17.20;99.90
15930;DHT22;8064;51.142;4.780;2023-07-13T04:52:25;17.30;99.90
15930;DHT22;8064;51.142;4.780;2023-07-13T04:54:50;17.30;99.90
15930;DHT22;8064;51.142;4.780;2023-07-13T04:57:16;17.30;99.90
15930;DHT22;8064;51.142;4.780;2023-07-13T04:59:42;17.30;99.90
15930;DHT22;8064;51.142;4.780;2023-07-13T05:02:08;17.30;99.90
15930;DHT22;8064;51.142;4.780;2023-07-13T05:04:33;17.30;99.90
15930;DHT22;8064;51.142;4.780;2023-07-13T05:07:00;17.40;99.90
15930;DHT22;8064;51.142;4.780;2023-07-13T05:09:25;17.40;99.90
15930;DHT22;8064;51.142;4.780;2023-07-13T05:11:52;17.40;99.90
15930;DHT22;8064;51.142;4.780;2023-07-13T05:14:18;17.40;99.90
15930;DHT22;8064;51.142;4.780;2023-07-13T05:16:43;17.40;99.90
15930;DHT22;8064;51.142;4.780;2023-07-13T05:19:09;17.40;99.90
15930;DHT22;8064;51.142;4.780;2023-07-13T05:21:35;17.40;99.90
15930;DHT22;8064;51.142;4.780;2023-07-13T05:24:01;17.50;99.90
15930;DHT22;8064;51.142;4.780;2023-07-13T05:26:27;17.50;99.90
15930;DHT22;8064;51.142;4.780;2023-07-13T05:28:53;17.50;99.90
15930;DHT22;8064;51.142;4.780;2023-07-13T05:31:18;17.50;99.90
15930;DHT22;8064;51.142;4.780;2023-07-13T05:33:44;17.60;99.90
15930;DHT22;8064;51.142;4.780;2023-07-13T05:36:10;17.60;99.90
15930;DHT22;8064;51.142;4.780;2023-07-13T05:38:36;17.60;99.90
15930;DHT22;8064;51.142;4.780;2023-07-13T05:41:02;17.60;99.90
15930;DHT22;8064;51.142;4.780;2023-07-13T05:43:27;17.60;99.90
15930;DHT22;8064;51.142;4.780;2023-07-13T05:45:56;17.70;99.90
15930;DHT22;8064;51.142;4.780;2023-07-13T05:48:22;17.70;99.90
15930;DHT22;8064;51.142;4.780;2023-07-13T05:50:48;17.70;99.90
15930;DHT22;8064;51.142;4.780;2023-07-13T05:53:14;17.80;99.90
15930;DHT22;8064;51.142;4.780;2023-07-13T05:55:42;17.80;99.90
15930;DHT22;8064;51.142;4.780;2023-07-13T05:58:08;17.80;99.90
15930;DHT22;8064;51.142;4.780;2023-07-13T06:00:34;17.80;99.90
15930;DHT22;8064;51.142;4.780;2023-07-13T06:02:59;17.90;99.90
15930;DHT22;8064;51.142;4.780;2023-07-13T06:05:25;17.90;99.90
15930;DHT22;8064;51.142;4.780;2023-07-13T06:07:52;17.90;99.90
15930;DHT22;8064;51.142;4.780;2023-07-13T06:10:18;17.90;99.90
15930;DHT22;8064;51.142;4.780;2023-07-13T06:12:44;18.00;99.90
15930;DHT22;8064;51.142;4.780;2023-07-13T06:15:10;18.00;99.90
15930;DHT22;8064;51.142;4.780;2023-07-13T06:17:35;18.00;99.90
15930;DHT22;8064;51.142;4.780;2023-07-13T06:20:01;18.00;99.90
15930;DHT22;8064;51.142;4.780;2023-07-13T06:22:27;18.10;99.90
15930;DHT22;8064;51.142;4.780;2023-07-13T06:24:53;18.10;99.90
15930;DHT22;8064;51.142;4.780;2023-07-13T06:27:19;18.10;99.90
15930;DHT22;8064;51.142;4.780;2023-07-13T06:29:44;18.10;99.90
15930;DHT22;8064;51.142;4.780;2023-07-13T06:32:10;18.20;99.90
15930;DHT22;8064;51.142;4.780;2023-07-13T06:34:36;18.20;99.90
15930;DHT22;8064;51.142;4.780;2023-07-13T06:37:02;18.20;99.90
15930;DHT22;8064;51.142;4.780;2023-07-13T06:39:28;18.20;99.90
15930;DHT22;8064;51.142;4.780;2023-07-13T06:41:53;18.20;99.90
15930;DHT22;8064;51.142;4.780;2023-07-13T06:44:19;18.20;99.90
15930;DHT22;8064;51.142;4.780;2023-07-13T06:46:45;18.20;99.90
15930;DHT22;8064;51.142;4.780;2023-07-13T06:49:11;18.20;99.90
15930;DHT22;8064;51.142;4.780;2023-07-13T06:51:36;18.30;99.90
15930;DHT22;8064;51.142;4.780;2023-07-13T06:54:04;18.30;99.90
15930;DHT22;8064;51.142;4.780;2023-07-13T06:56:29;18.40;99.90
15930;DHT22;8064;51.142;4.780;2023-07-13T06:58:55;18.40;99.90
15930;DHT22;8064;51.142;4.780;2023-07-13T07:01:21;18.50;99.90
15930;DHT22;8064;51.142;4.780;2023-07-13T07:03:47;18.50;99.90
15930;DHT22;8064;51.142;4.780;2023-07-13T07:06:19;18.50;99.90
15930;DHT22;8064;51.142;4.780;2023-07-13T07:08:46;18.60;99.90
15930;DHT22;8064;51.142;4.780;2023-07-13T07:11:13;18.60;99.90
15930;DHT22;8064;51.142;4.780;2023-07-13T07:13:40;18.70;99.90
15930;DHT22;8064;51.142;4.780;2023-07-13T07:16:06;18.70;99.90
15930;DHT22;8064;51.142;4.780;2023-07-13T07:18:32;18.80;99.90
15930;DHT22;8064;51.142;4.780;2023-07-13T07:20:58;18.90;99.90
15930;DHT22;8064;51.142;4.780;2023-07-13T07:23:23;18.90;99.90
15930;DHT22;8064;51.142;4.780;2023-07-13T07:25:49;19.00;99.90
15930;DHT22;8064;51.142;4.780;2023-07-13T07:28:17;19.00;99.90
15930;DHT22;8064;51.142;4.780;2023-07-13T07:30:44;19.10;99.90
15930;DHT22;8064;51.142;4.780;2023-07-13T07:33:10;19.10;99.90
15930;DHT22;8064;51.142;4.780;2023-07-13T07:35:36;19.30;99.90
15930;DHT22;8064;51.142;4.780;2023-07-13T07:38:02;19.60;99.90
15930;DHT22;8064;51.142;4.780;2023-07-13T07:40:28;19.90;99.90
15930;DHT22;8064;51.142;4.780;2023-07-13T07:42:54;20.20;99.90
15930;DHT22;8064;51.142;4.780;2023-07-13T07:45:20;20.50;99.90
15930;DHT22;8064;51.142;4.780;2023-07-13T07:47:46;20.70;99.90
15930;DHT22;8064;51.142;4.780;2023-07-13T07:50:13;20.90;99.90
15930;DHT22;8064;51.142;4.780;2023-07-13T07:52:39;21.10;99.90
15930;DHT22;8064;51.142;4.780;2023-07-13T07:55:06;21.20;99.90
15930;DHT22;8064;51.142;4.780;2023-07-13T07:57:32;21.40;99.40
15930;DHT22;8064;51.142;4.780;2023-07-13T07:59:58;21.50;99.30
15930;DHT22;8064;51.142;4.780;2023-07-13T08:02:24;21.60;99.20
15930;DHT22;8064;51.142;4.780;2023-07-13T08:04:51;21.70;98.90
15930;DHT22;8064;51.142;4.780;2023-07-13T08:07:16;21.90;98.70
15930;DHT22;8064;51.142;4.780;2023-07-13T08:09:42;21.90;98.40
15930;DHT22;8064;51.142;4.780;2023-07-13T08:12:08;21.90;98.50
15930;DHT22;8064;51.142;4.780;2023-07-13T08:14:34;22.10;98.50
15930;DHT22;8064;51.142;4.780;2023-07-13T08:17:00;22.10;98.00
15930;DHT22;8064;51.142;4.780;2023-07-13T08:19:26;22.20;97.70
15930;DHT22;8064;51.142;4.780;2023-07-13T08:21:52;22.30;97.60
15930;DHT22;8064;51.142;4.780;2023-07-13T08:24:18;22.30;97.60
15930;DHT22;8064;51.142;4.780;2023-07-13T08:26:44;22.20;97.10
15930;DHT22;8064;51.142;4.780;2023-07-13T08:29:11;22.30;97.50
15930;DHT22;8064;51.142;4.780;2023-07-13T08:31:37;22.40;97.30
15930;DHT22;8064;51.142;4.780;2023-07-13T08:34:03;22.50;97.10
15930;DHT22;8064;51.142;4.780;2023-07-13T08:36:29;22.50;96.80
15930;DHT22;8064;51.142;4.780;2023-07-13T08:38:55;22.60;96.60
15930;DHT22;8064;51.142;4.780;2023-07-13T08:41:21;22.50;96.50
15930;DHT22;8064;51.142;4.780;2023-07-13T08:43:51;22.50;96.40
15930;DHT22;8064;51.142;4.780;2023-07-13T08:46:25;22.60;96.30
15930;DHT22;8064;51.142;4.780;2023-07-13T08:48:55;22.60;96.10
15930;DHT22;8064;51.142;4.780;2023-07-13T08:51:43;22.70;96.10
15930;DHT22;8064;51.142;4.780;2023-07-13T08:54:28;22.70;96.10
15930;DHT22;8064;51.142;4.780;2023-07-13T08:56:56;22.80;96.00
15930;DHT22;8064;51.142;4.780;2023-07-13T08:59:28;22.70;96.10
15930;DHT22;8064;51.142;4.780;2023-07-13T09:02:14;22.60;96.20
15930;DHT22;8064;51.142;4.780;2023-07-13T09:05:03;22.70;96.30
15930;DHT22;8064;51.142;4.780;2023-07-13T09:07:55;23.00;96.00
15930;DHT22;8064;51.142;4.780;2023-07-13T09:10:30;23.30;95.20
15930;DHT22;8064;51.142;4.780;2023-07-13T09:13:03;23.50;94.70
15930;DHT22;8064;51.142;4.780;2023-07-13T09:21:15;23.70;93.60
15930;DHT22;8064;51.142;4.780;2023-07-13T09:23:42;23.90;93.40
15930;DHT22;8064;51.142;4.780;2023-07-13T09:26:28;24.10;93.10
15930;DHT22;8064;51.142;4.780;2023-07-13T09:29:03;24.40;92.90
15930;DHT22;8064;51.142;4.780;2023-07-13T09:34:18;24.70;92.30
15930;DHT22;8064;51.142;4.780;2023-07-13T09:36:44;24.80;92.00
15930;DHT22;8064;51.142;4.780;2023-07-13T09:39:30;24.80;91.60
15930;DHT22;8064;51.142;4.780;2023-07-13T09:45:02;24.40;91.70
15930;DHT22;8064;51.142;4.780;2023-07-13T09:47:31;24.10;91.90
15930;DHT22;8064;51.142;4.780;2023-07-13T09:50:10;23.80;92.00
15930;DHT22;8064;51.142;4.780;2023-07-13T09:52:42;23.50;92.50
15930;DHT22;8064;51.142;4.780;2023-07-13T09:55:30;23.20;92.90
15930;DHT22;8064;51.142;4.780;2023-07-13T09:57:57;23.00;93.20
15930;DHT22;8064;51.142;4.780;2023-07-13T10:00:25;22.80;93.40
15930;DHT22;8064;51.142;4.780;2023-07-13T10:03:09;23.00;94.00
15930;DHT22;8064;51.142;4.780;2023-07-13T10:05:41;23.30;94.30
15930;DHT22;8064;51.142;4.780;2023-07-13T10:08:17;23.80;94.10
15930;DHT22;8064;51.142;4.780;2023-07-13T10:10:44;24.20;93.20
15930;DHT22;8064;51.142;4.780;2023-07-13T10:13:29;24.50;92.60
15930;DHT22;8064;51.142;4.780;2023-07-13T10:15:58;24.50;92.60
15930;DHT22;8064;51.142;4.780;2023-07-13T10:18:25;24.40;92.70
15930;DHT22;8064;51.142;4.780;2023-07-13T10:20:58;24.50;92.40
15930;DHT22;8064;51.142;4.780;2023-07-13T10:23:33;24.50;91.80
15930;DHT22;8064;51.142;4.780;2023-07-13T10:26:00;24.40;91.20
15930;DHT22;8064;51.142;4.780;2023-07-13T10:28:31;24.20;91.60
15930;DHT22;8064;51.142;4.780;2023-07-13T10:30:59;24.00;91.70
15930;DHT22;8064;51.142;4.780;2023-07-13T10:33:26;24.00;91.50
15930;DHT22;8064;51.142;4.780;2023-07-13T10:36:01;24.10;91.20
15930;DHT22;8064;51.142;4.780;2023-07-13T10:38:29;24.40;91.30
15930;DHT22;8064;51.142;4.780;2023-07-13T10:41:12;24.70;91.00
15930;DHT22;8064;51.142;4.780;2023-07-13T10:43:46;25.10;90.40
15930;DHT22;8064;51.142;4.780;2023-07-13T10:46:16;25.30;89.20
15930;DHT22;8064;51.142;4.780;2023-07-13T10:48:46;25.20;88.50
15930;DHT22;8064;51.142;4.780;2023-07-13T10:51:14;25.00;88.20
15930;DHT22;8064;51.142;4.780;2023-07-13T10:53:40;25.00;87.90
15930;DHT22;8064;51.142;4.780;2023-07-13T10:58:45;25.20;85.60
15930;DHT22;8064;51.142;4.780;2023-07-13T11:01:15;25.30;86.00
15930;DHT22;8064;51.142;4.780;2023-07-13T11:04:01;25.50;85.80
15930;DHT22;8064;51.142;4.780;2023-07-13T11:06:30;25.50;84.70
15930;DHT22;8064;51.142;4.780;2023-07-13T11:09:19;25.40;84.70
15930;DHT22;8064;51.142;4.780;2023-07-13T11:11:45;25.30;83.60
15930;DHT22;8064;51.142;4.780;2023-07-13T11:17:29;25.10;84.70
15930;DHT22;8064;51.142;4.780;2023-07-13T11:20:20;25.00;84.40
15930;DHT22;8064;51.142;4.780;2023-07-13T11:25:50;24.70;84.50
15930;DHT22;8064;51.142;4.780;2023-07-13T11:28:21;24.60;84.20
15930;DHT22;8064;51.142;4.780;2023-07-13T11:30:48;24.50;83.70
15930;DHT22;8064;51.142;4.780;2023-07-13T11:36:12;24.40;84.20
15930;DHT22;8064;51.142;4.780;2023-07-13T11:38:41;24.40;85.10
15930;DHT22;8064;51.142;4.780;2023-07-13T11:44:15;24.30;84.70
15930;DHT22;8064;51.142;4.780;2023-07-13T11:46:46;24.20;84.60
15930;DHT22;8064;51.142;4.780;2023-07-13T11:49:18;24.10;85.00
15930;DHT22;8064;51.142;4.780;2023-07-13T11:51:44;23.90;85.00
15930;DHT22;8064;51.142;4.780;2023-07-13T11:54:31;23.80;85.30
15930;DHT22;8064;51.142;4.780;2023-07-13T11:57:02;23.70;85.40
15930;DHT22;8064;51.142;4.780;2023-07-13T11:59:32;23.50;85.20
15930;DHT22;8064;51.142;4.780;2023-07-13T12:01:59;23.40;85.60
15930;DHT22;8064;51.142;4.780;2023-07-13T12:04:41;23.30;86.10
15930;DHT22;8064;51.142;4.780;2023-07-13T12:07:15;23.20;86.70
15930;DHT22;8064;51.142;4.780;2023-07-13T12:09:42;23.10;87.00
15930;DHT22;8064;51.142;4.780;2023-07-13T12:12:13;23.10;88.10
15930;DHT22;8064;51.142;4.780;2023-07-13T12:14:39;23.00;87.10
15930;DHT22;8064;51.142;4.780;2023-07-13T12:19:49;23.00;88.00
15930;DHT22;8064;51.142;4.780;2023-07-13T12:22:17;22.90;88.80
15930;DHT22;8064;51.142;4.780;2023-07-13T12:24:44;22.80;90.00
15930;DHT22;8064;51.142;4.780;2023-07-13T12:27:24;22.60;90.50
15930;DHT22;8064;51.142;4.780;2023-07-13T12:29:53;22.40;91.30
15930;DHT22;8064;51.142;4.780;2023-07-13T12:32:24;22.20;91.90
15930;DHT22;8064;51.142;4.780;2023-07-13T12:34:53;21.90;92.90
15930;DHT22;8064;51.142;4.780;2023-07-13T12:37:19;21.70;93.80
15930;DHT22;8064;51.142;4.780;2023-07-13T12:39:48;21.50;94.50
15930;DHT22;8064;51.142;4.780;2023-07-13T12:42:27;21.20;95.20
15930;DHT22;8064;51.142;4.780;2023-07-13T12:44:58;21.00;95.90
15930;DHT22;8064;51.142;4.780;2023-07-13T12:47:26;20.80;96.20
15930;DHT22;8064;51.142;4.780;2023-07-13T12:49:56;20.50;96.50
15930;DHT22;8064;51.142;4.780;2023-07-13T12:55:12;20.10;97.60
15930;DHT22;8064;51.142;4.780;2023-07-13T12:58:09;19.90;98.00
15930;DHT22;8064;51.142;4.780;2023-07-13T13:00:38;19.80;98.50
15930;DHT22;8064;51.142;4.780;2023-07-13T13:03:12;19.70;98.60
15930;DHT22;8064;51.142;4.780;2023-07-13T13:05:44;19.60;98.90
15930;DHT22;8064;51.142;4.780;2023-07-13T13:08:12;19.60;99.20
15930;DHT22;8064;51.142;4.780;2023-07-13T13:10:38;19.50;99.40
15930;DHT22;8064;51.142;4.780;2023-07-13T13:13:04;19.60;99.60
15930;DHT22;8064;51.142;4.780;2023-07-13T13:15:30;19.60;99.80
15930;DHT22;8064;51.142;4.780;2023-07-13T13:17:56;19.70;99.90
15930;DHT22;8064;51.142;4.780;2023-07-13T13:20:24;19.80;99.90
15930;DHT22;8064;51.142;4.780;2023-07-13T13:22:52;19.80;99.90
15930;DHT22;8064;51.142;4.780;2023-07-13T13:25:19;19.90;99.90
15930;DHT22;8064;51.142;4.780;2023-07-13T13:27:45;20.00;99.90
15930;DHT22;8064;51.142;4.780;2023-07-13T13:30:13;20.00;99.90
15930;DHT22;8064;51.142;4.780;2023-07-13T13:32:40;20.10;99.90
15930;DHT22;8064;51.142;4.780;2023-07-13T13:35:13;20.20;99.90
15930;DHT22;8064;51.142;4.780;2023-07-13T13:37:39;20.40;99.90
15930;DHT22;8064;51.142;4.780;2023-07-13T13:40:14;20.50;99.90
15930;DHT22;8064;51.142;4.780;2023-07-13T13:42:40;20.60;99.80
15930;DHT22;8064;51.142;4.780;2023-07-13T13:45:09;20.70;99.60
15930;DHT22;8064;51.142;4.780;2023-07-13T13:47:35;20.80;99.50
15930;DHT22;8064;51.142;4.780;2023-07-13T13:50:10;20.90;99.40
15930;DHT22;8064;51.142;4.780;2023-07-13T13:52:36;20.90;99.60
15930;DHT22;8064;51.142;4.780;2023-07-13T13:55:11;21.00;99.30
15930;DHT22;8064;51.142;4.780;2023-07-13T13:57:37;21.10;99.30
15930;DHT22;8064;51.142;4.780;2023-07-13T14:00:03;21.10;99.10
15930;DHT22;8064;51.142;4.780;2023-07-13T14:02:29;21.10;99.00
15930;DHT22;8064;51.142;4.780;2023-07-13T14:04:59;21.20;98.90
15930;DHT22;8064;51.142;4.780;2023-07-13T14:07:26;21.20;98.80
15930;DHT22;8064;51.142;4.780;2023-07-13T14:09:54;21.30;98.70
15930;DHT22;8064;51.142;4.780;2023-07-13T14:12:22;21.40;98.70
15930;DHT22;8064;51.142;4.780;2023-07-13T14:14:49;21.50;98.60
15930;DHT22;8064;51.142;4.780;2023-07-13T14:17:31;21.50;98.40
15930;DHT22;8064;51.142;4.780;2023-07-13T14:19:57;21.60;98.30
15930;DHT22;8064;51.142;4.780;2023-07-13T14:22:24;21.60;98.20
15930;DHT22;8064;51.142;4.780;2023-07-13T14:24:52;21.70;98.30
15930;DHT22;8064;51.142;4.780;2023-07-13T14:27:19;21.80;97.80
15930;DHT22;8064;51.142;4.780;2023-07-13T14:29:44;21.80;98.00
15930;DHT22;8064;51.142;4.780;2023-07-13T14:32:11;21.90;97.90
15930;DHT22;8064;51.142;4.780;2023-07-13T14:34:37;22.00;98.00
15930;DHT22;8064;51.142;4.780;2023-07-13T14:37:04;22.10;98.10
15930;DHT22;8064;51.142;4.780;2023-07-13T14:39:30;22.10;97.80
15930;DHT22;8064;51.142;4.780;2023-07-13T14:41:57;22.20;97.60
15930;DHT22;8064;51.142;4.780;2023-07-13T14:44:33;22.20;97.40
15930;DHT22;8064;51.142;4.780;2023-07-13T14:47:00;22.20;97.20
15930;DHT22;8064;51.142;4.780;2023-07-13T14:49:40;22.20;97.00
15930;DHT22;8064;51.142;4.780;2023-07-13T14:52:20;22.20;96.70
15930;DHT22;8064;51.142;4.780;2023-07-13T14:54:47;22.20;96.60
15930;DHT22;8064;51.142;4.780;2023-07-13T14:57:16;22.20;96.70
15930;DHT22;8064;51.142;4.780;2023-07-13T14:59:42;22.20;96.60
15930;DHT22;8064;51.142;4.780;2023-07-13T15:05:25;22.20;96.20
15930;DHT22;8064;51.142;4.780;2023-07-13T15:07:53;22.40;96.40
15930;DHT22;8064;51.142;4.780;2023-07-13T15:10:23;22.40;96.10
15930;DHT22;8064;51.142;4.780;2023-07-13T15:12:51;22.50;96.00
15930;DHT22;8064;51.142;4.780;2023-07-13T15:15:18;22.60;96.10
15930;DHT22;8064;51.142;4.780;2023-07-13T15:17:45;22.60;96.00
15930;DHT22;8064;51.142;4.780;2023-07-13T15:20:15;22.60;96.00
15930;DHT22;8064;51.142;4.780;2023-07-13T15:22:42;22.60;96.00
15930;DHT22;8064;51.142;4.780;2023-07-13T15:27:59;22.60;95.80
15930;DHT22;8064;51.142;4.780;2023-07-13T15:30:28;22.60;95.60
15930;DHT22;8064;51.142;4.780;2023-07-13T15:32:56;22.70;95.40
15930;DHT22;8064;51.142;4.780;2023-07-13T15:35:25;22.70;95.40
15930;DHT22;8064;51.142;4.780;2023-07-13T15:37:52;22.70;95.50
15930;DHT22;8064;51.142;4.780;2023-07-13T15:40:18;22.70;95.30
15930;DHT22;8064;51.142;4.780;2023-07-13T15:42:47;22.80;95.10
15930;DHT22;8064;51.142;4.780;2023-07-13T15:47:58;22.90;94.80
15930;DHT22;8064;51.142;4.780;2023-07-13T15:50:24;22.80;94.60
15930;DHT22;8064;51.142;4.780;2023-07-13T15:52:54;22.90;94.60
15930;DHT22;8064;51.142;4.780;2023-07-13T15:55:21;22.80;94.50
15930;DHT22;8064;51.142;4.780;2023-07-13T15:57:50;22.80;94.60
15930;DHT22;8064;51.142;4.780;2023-07-13T16:00:34;22.80;94.70
15930;DHT22;8064;51.142;4.780;2023-07-13T16:03:00;22.80;94.70
15930;DHT22;8064;51.142;4.780;2023-07-13T16:05:26;22.80;94.90
15930;DHT22;8064;51.142;4.780;2023-07-13T16:07:53;22.80;95.00
15930;DHT22;8064;51.142;4.780;2023-07-13T16:10:37;22.80;94.90
15930;DHT22;8064;51.142;4.780;2023-07-13T16:13:13;22.80;94.50
15930;DHT22;8064;51.142;4.780;2023-07-13T16:15:40;22.80;94.50
15930;DHT22;8064;51.142;4.780;2023-07-13T16:18:10;22.80;94.50
15930;DHT22;8064;51.142;4.780;2023-07-13T16:20:37;22.80;94.50
15930;DHT22;8064;51.142;4.780;2023-07-13T16:23:03;22.80;95.00
15930;DHT22;8064;51.142;4.780;2023-07-13T16:25:29;22.80;95.10
15930;DHT22;8064;51.142;4.780;2023-07-13T16:27:57;22.80;95.30
15930;DHT22;8064;51.142;4.780;2023-07-13T16:30:27;22.90;95.40
15930;DHT22;8064;51.142;4.780;2023-07-13T16:32:56;22.90;95.60
15930;DHT22;8064;51.142;4.780;2023-07-13T16:35:25;23.00;95.80
15930;DHT22;8064;51.142;4.780;2023-07-13T16:37:52;23.10;96.00